Time;durP1;ratioP1;P1;durP2;ratioP2;P2;SDS_P1;SDS_P2;PMS_P1;PMS_P2;Temp;Humidity;BMP_temperature;BMP_pressure;BME280_temperature;BME280_humidity;BME280_pressure;Samples;Min_cycle;Max_cycle;Signal;HPM_P1;HPM_P2
2022/01/26 00:06:29;;;;;;;29.50;11.07;;;-0.60;99.90;;;;;;6215366;23;20032;-85
2022/01/26 00:08:55;;;;;;;46.10;11.50;;;-0.60;99.90;;;;;;6212292;22;20021;-88
2022/01/26 00:11:27;;;;;;;62.93;12.47;;;-0.60;99.90;;;;;;6218493;23;20450;-88
2022/01/26 00:14:02;;;;;;;;;;;-0.60;99.90;;;;;;6218168;23;20000;-88
2022/01/26 00:16:37;;;;;;;42.70;11.57;;;-0.60;99.90;;;;;;6192501;23;19983;-88
2022/01/26 00:19:08;;;;;;;43.73;10.80;;;-0.60;99.90;;;;;;6218737;23;20000;-88
2022/01/26 00:21:55;;;;;;;51.17;12.07;;;-0.50;99.90;;;;;;6219090;23;20004;-88
2022/01/26 00:27:10;;;;;;;69.43;12.80;;;-0.50;99.90;;;;;;6228974;23;20005;-89
2022/01/26 00:29:38;;;;;;;35.87;10.77;;;-0.50;99.90;;;;;;6193844;23;20390;-89
2022/01/26 00:42:56;;;;;;;104.70;11.87;;;-0.40;99.90;;;;;;6227770;23;20049;-88
2022/01/26 00:45:25;;;;;;;54.50;11.00;;;-0.30;99.90;;;;;;6192878;23;20016;-88
2022/01/26 00:47:54;;;;;;;64.77;12.03;;;-0.30;99.90;;;;;;6193195;23;20132;-88
2022/01/26 00:50:20;;;;;;;142.90;14.73;;;-0.30;99.90;;;;;;6192653;23;20016;-88
2022/01/26 00:52:53;;;;;;;85.00;12.57;;;-0.30;99.90;;;;;;6192047;23;20019;-88
2022/01/26 00:55:22;;;;;;;70.67;12.40;;;-0.30;99.90;;;;;;6193029;23;20087;-88
2022/01/26 00:57:48;;;;;;;61.30;12.27;;;-0.30;99.90;;;;;;6193315;23;20000;-88
2022/01/26 01:00:19;;;;;;;62.77;11.50;;;-0.30;99.90;;;;;;6191839;23;20079;-88
2022/01/26 01:02:45;;;;;;;119.50;12.70;;;-0.30;99.90;;;;;;6193508;23;20312;-87
2022/01/26 01:05:18;;;;;;;130.97;14.00;;;-0.40;99.90;;;;;;6193545;23;20031;-88
2022/01/26 01:07:46;;;;;;;51.13;12.50;;;-0.30;99.90;;;;;;6194646;23;20052;-88
2022/01/26 01:10:19;;;;;;;119.40;12.70;;;-0.30;99.90;;;;;;6206204;23;20017;-89
2022/01/26 01:12:45;;;;;;;105.93;13.47;;;-0.30;99.90;;;;;;6220799;23;20071;-89
2022/01/26 01:15:13;;;;;;;146.87;13.60;;;-0.40;99.90;;;;;;6219923;23;20027;-88
2022/01/26 01:17:46;;;;;;;140.63;14.50;;;-0.30;99.90;;;;;;6224128;23;20001;-88
2022/01/26 01:20:37;;;;;;;125.83;12.43;;;-0.30;99.90;;;;;;6224448;23;20009;-89
2022/01/26 01:30:52;;;;;;;79.50;11.93;;;-0.40;99.90;;;;;;6218759;23;20028;-90
2022/01/26 01:33:24;;;;;;;106.50;13.90;;;-0.30;99.90;;;;;;6218548;23;20008;-89
2022/01/26 01:35:50;;;;;;;80.13;12.37;;;-0.30;99.90;;;;;;6217142;23;20427;-89
2022/01/26 01:38:20;;;;;;;86.60;12.17;;;-0.30;99.90;;;;;;6215891;23;20059;-89
2022/01/26 01:40:51;;;;;;;139.97;12.97;;;-0.40;99.90;;;;;;6216470;23;20011;-89
2022/01/26 01:43:19;;;;;;;169.30;14.03;;;-0.30;99.90;;;;;;6215395;23;20028;-89
2022/01/26 01:45:55;;;;;;;139.50;12.63;;;-0.40;99.90;;;;;;6219565;23;20021;-89
2022/01/26 01:48:30;;;;;;;99.07;10.83;;;-0.30;99.90;;;;;;6220012;23;20271;-88
2022/01/26 01:50:59;;;;;;;103.80;12.50;;;-0.40;99.90;;;;;;6220603;23;20000;-89
2022/01/26 01:53:44;;;;;;;93.33;11.40;;;-0.40;99.90;;;;;;6220039;23;20012;-89
2022/01/26 01:56:22;;;;;;;87.80;11.67;;;-0.40;99.90;;;;;;6221073;23;20000;-89
2022/01/26 01:58:54;;;;;;;109.70;12.63;;;-0.40;99.90;;;;;;6220097;23;20004;-90
2022/01/26 02:01:21;;;;;;;53.78;10.73;;;-0.30;99.90;;;;;;6221292;23;20088;-88
2022/01/26 02:03:47;;;;;;;109.33;12.13;;;-0.30;99.90;;;;;;6220791;23;20504;-87
2022/01/26 02:06:12;;;;;;;72.13;12.97;;;-0.30;99.90;;;;;;6220145;23;20032;-88
2022/01/26 02:08:50;;;;;;;79.90;11.63;;;-0.40;99.90;;;;;;6221428;23;20094;-89
2022/01/26 02:11:19;;;;;;;134.10;13.60;;;-0.30;99.90;;;;;;6219814;23;20036;-89
2022/01/26 02:16:23;;;;;;;85.73;12.40;;;-0.30;99.90;;;;;;6222063;23;20004;-88
2022/01/26 02:57:28;;;;;;;55.90;12.83;;;-0.30;99.90;;;;;;6224520;23;20012;-88
2022/01/26 03:02:51;;;;;;;83.27;12.03;;;-0.20;99.90;;;;;;6220691;23;20015;-88
2022/01/26 03:05:21;;;;;;;104.77;11.53;;;-0.20;99.90;;;;;;6219380;23;20068;-89
2022/01/26 03:07:55;;;;;;;128.90;14.30;;;-0.30;99.90;;;;;;6219098;23;20011;-89
2022/01/26 03:10:33;;;;;;;118.60;12.57;;;-0.30;99.90;;;;;;6223143;23;20012;-88
2022/01/26 03:13:09;;;;;;;72.70;13.10;;;-0.30;99.90;;;;;;6251417;23;20434;-89
2022/01/26 03:15:43;;;;;;;55.73;11.00;;;-0.30;99.90;;;;;;6223850;23;20032;-88
2022/01/26 03:18:30;;;;;;;110.63;11.80;;;-0.40;99.90;;;;;;6223716;23;20372;-89
2022/01/26 03:21:05;;;;;;;74.13;12.17;;;-0.30;99.90;;;;;;6249782;22;20077;-88
2022/01/26 03:32:25;;;;;;;52.50;11.57;;;-0.30;99.90;;;;;;6262043;23;20091;-88
2022/01/26 03:34:34;;;;;;;69.50;11.30;;;-0.40;99.90;;;;;;6251533;22;20011;-89
2022/01/26 03:37:05;;;;;;;39.77;10.60;;;-0.30;99.90;;;;;;6225901;23;20000;-88
2022/01/26 03:39:39;;;;;;;22.40;10.27;;;-0.40;99.90;;;;;;6226932;23;20016;-89
2022/01/26 03:42:13;;;;;;;28.60;9.07;;;-0.20;99.90;;;;;;6228122;23;20000;-89
2022/01/26 03:44:42;;;;;;;34.93;10.23;;;-0.30;99.90;;;;;;6225993;23;20001;-89
2022/01/26 03:47:11;;;;;;;35.13;9.07;;;-0.40;99.90;;;;;;6226553;23;19996;-88
2022/01/26 03:49:37;;;;;;;41.33;11.47;;;-0.50;99.90;;;;;;6220797;23;20004;-89
2022/01/26 03:52:06;;;;;;;30.87;9.43;;;-0.50;99.90;;;;;;6221864;23;20418;-89
2022/01/26 03:54:32;;;;;;;30.33;9.57;;;-0.50;99.90;;;;;;6222350;23;20066;-89
2022/01/26 03:56:59;;;;;;;34.77;10.10;;;-0.50;99.90;;;;;;6223649;23;20142;-89
2022/01/26 03:59:32;;;;;;;24.27;8.43;;;-0.50;99.90;;;;;;6224058;23;19996;-88
2022/01/26 04:01:58;;;;;;;41.90;9.67;;;-0.50;99.90;;;;;;6225778;23;20366;-88
2022/01/26 04:04:24;;;;;;;32.87;9.37;;;-0.50;99.90;;;;;;6225523;23;20054;-88
2022/01/26 04:06:50;;;;;;;31.83;8.53;;;-0.60;99.90;;;;;;6225936;23;20446;-88
2022/01/26 04:09:18;;;;;;;31.03;9.03;;;-0.60;99.90;;;;;;6221766;23;20008;-89
2022/01/26 04:11:48;;;;;;;31.53;8.80;;;-0.60;99.90;;;;;;6194702;23;20462;-87
2022/01/26 04:14:22;;;;;;;22.30;8.60;;;-0.60;99.90;;;;;;6196650;23;20000;-88
2022/01/26 04:16:54;;;;;;;26.10;9.23;;;-0.70;99.90;;;;;;6197394;23;20150;-87
2022/01/26 04:19:23;;;;;;;20.65;7.45;;;-0.60;99.90;;;;;;6222220;23;20003;-88
2022/01/26 04:22:14;;;;;;;24.83;8.37;;;-0.70;99.90;;;;;;6223192;23;20004;-88
2022/01/26 04:24:46;;;;;;;19.33;7.17;;;-0.80;99.90;;;;;;6223172;23;20032;-88
2022/01/26 04:27:24;;;;;;;28.52;7.82;;;-0.80;99.90;;;;;;6196477;23;20004;-89
2022/01/26 04:29:50;;;;;;;21.80;7.07;;;-0.80;99.90;;;;;;6196963;23;20583;-89
2022/01/26 04:32:23;;;;;;;22.73;7.87;;;-0.80;99.90;;;;;;6222353;23;20028;-88
2022/01/26 04:34:59;;;;;;;28.58;7.25;;;-0.90;99.90;;;;;;6196727;23;20047;-89
2022/01/26 04:40:35;;;;;;;25.07;8.03;;;-0.90;99.90;;;;;;6215720;23;20383;-89
2022/01/26 04:43:06;;;;;;;33.93;8.70;;;-0.90;99.90;;;;;;6194322;23;20004;-89
2022/01/26 04:45:34;;;;;;;21.90;7.30;;;-1.00;99.90;;;;;;6193968;23;20015;-89
2022/01/26 04:48:00;;;;;;;20.20;7.33;;;-0.90;99.90;;;;;;6218833;23;20004;-88
2022/01/26 04:50:25;;;;;;;35.93;9.17;;;-0.90;99.90;;;;;;6217216;23;20020;-88
2022/01/26 04:52:51;;;;;;;41.43;7.70;;;-0.80;99.90;;;;;;6194509;23;20043;-89
2022/01/26 04:55:19;;;;;;;20.93;7.60;;;-1.00;99.90;;;;;;6193659;23;19997;-87
2022/01/26 04:57:45;;;;;;;25.23;7.53;;;-0.80;99.90;;;;;;6192361;23;20058;-87
2022/01/26 05:00:14;;;;;;;28.93;7.73;;;-0.90;99.90;;;;;;6193542;23;20099;-87
2022/01/26 05:02:40;;;;;;;32.03;8.43;;;-0.90;99.90;;;;;;6193525;23;20315;-88
2022/01/26 05:05:08;;;;;;;30.77;8.07;;;-0.90;99.90;;;;;;6193090;23;20004;-87
2022/01/26 05:07:34;;;;;;;23.23;7.83;;;-0.90;99.90;;;;;;6191832;23;19997;-88
2022/01/26 05:10:09;;;;;;;24.47;7.73;;;-1.00;99.90;;;;;;6198764;23;20015;-87
2022/01/26 05:12:43;;;;;;;26.53;8.83;;;-1.10;99.90;;;;;;6217935;23;20001;-88
2022/01/26 05:15:14;;;;;;;24.33;8.23;;;-1.10;99.90;;;;;;6219309;23;20008;-87
2022/01/26 05:17:55;;;;;;;27.02;8.75;;;-1.20;99.90;;;;;;6221113;23;20000;-90
2022/01/26 05:20:21;;;;;;;19.97;7.23;;;-1.20;99.90;;;;;;6218665;23;20008;-88
2022/01/26 05:22:49;;;;;;;22.13;8.10;;;-1.20;99.90;;;;;;6218599;23;20113;-88
2022/01/26 05:25:14;;;;;;;27.73;7.83;;;-1.20;99.90;;;;;;6220978;23;20009;-88
2022/01/26 05:27:43;;;;;;;23.00;7.70;;;-1.20;99.90;;;;;;6219596;23;20517;-88
2022/01/26 05:30:09;;;;;;;22.50;9.07;;;-1.10;99.90;;;;;;6218504;23;20005;-87
2022/01/26 05:32:35;;;;;;;25.87;7.93;;;-1.10;99.90;;;;;;6218781;23;20027;-88
2022/01/26 05:35:01;;;;;;;29.13;8.47;;;-1.10;99.90;;;;;;6217808;23;20389;-89
2022/01/26 05:37:26;;;;;;;28.70;8.03;;;-1.10;99.90;;;;;;6218743;23;20000;-89
2022/01/26 05:39:52;;;;;;;23.63;8.33;;;-1.00;99.90;;;;;;6219111;23;20443;-89
2022/01/26 05:42:18;;;;;;;34.57;8.60;;;-1.00;99.90;;;;;;6218673;23;20004;-88
2022/01/26 05:44:45;;;;;;;26.37;9.37;;;-0.90;99.90;;;;;;6218942;23;20088;-89
2022/01/26 05:47:26;;;;;;;23.80;8.40;;;-0.90;99.90;;;;;;6221323;23;20435;-88
2022/01/26 05:49:56;;;;;;;23.97;9.07;;;-0.80;99.90;;;;;;6222486;23;20070;-89
2022/01/26 05:52:29;;;;;;;26.60;8.83;;;-0.90;99.90;;;;;;6222067;23;20060;-89
2022/01/26 05:54:55;;;;;;;27.47;8.57;;;-0.90;99.90;;;;;;6220879;23;20001;-89
2022/01/26 05:57:21;;;;;;;26.37;7.97;;;-0.80;99.90;;;;;;6219254;23;20035;-90
2022/01/26 05:59:46;;;;;;;28.47;10.07;;;-0.80;99.90;;;;;;6218854;23;20004;-90
2022/01/26 06:02:12;;;;;;;27.47;8.67;;;-0.90;99.90;;;;;;6220108;23;20020;-88
2022/01/26 06:04:38;;;;;;;22.53;8.67;;;-1.00;99.90;;;;;;6247234;23;20005;-89
2022/01/26 06:07:04;;;;;;;22.17;7.43;;;-1.00;99.90;;;;;;6223175;23;20015;-88
2022/01/26 06:09:29;;;;;;;28.50;9.17;;;-0.90;99.90;;;;;;6230008;23;20008;-89
2022/01/26 06:11:55;;;;;;;25.67;8.73;;;-1.00;99.90;;;;;;6204364;22;20027;-84
2022/01/26 06:14:21;;;;;;;28.17;9.53;;;-1.00;99.90;;;;;;6222141;23;20011;-82
2022/01/26 06:16:46;;;;;;;32.43;9.10;;;-1.00;99.90;;;;;;6221554;23;20008;-85
2022/01/26 06:19:12;;;;;;;24.17;8.90;;;-1.00;99.90;;;;;;6220373;23;20383;-83
2022/01/26 06:21:38;;;;;;;27.00;8.73;;;-1.00;99.90;;;;;;6224411;23;20020;-83
2022/01/26 06:24:04;;;;;;;26.80;9.03;;;-0.90;99.90;;;;;;6223533;23;20005;-83
2022/01/26 06:26:30;;;;;;;19.50;7.53;;;-1.00;99.90;;;;;;6222743;23;20020;-84
2022/01/26 06:28:56;;;;;;;28.70;9.13;;;-0.90;99.90;;;;;;6224393;23;20004;-83
2022/01/26 06:31:26;;;;;;;33.10;8.93;;;-0.90;99.90;;;;;;6222562;23;20019;-85
2022/01/26 06:33:52;;;;;;;32.87;9.13;;;-1.00;99.90;;;;;;6197840;23;20000;-83
2022/01/26 06:36:18;;;;;;;22.20;8.60;;;-0.90;99.90;;;;;;6222402;23;20015;-83
2022/01/26 06:38:46;;;;;;;29.60;8.37;;;-0.90;99.90;;;;;;6222556;23;20443;-84
2022/01/26 06:41:13;;;;;;;25.50;8.27;;;-0.90;99.90;;;;;;6221369;23;20001;-85
2022/01/26 06:43:49;;;;;;;23.47;8.43;;;-1.00;99.90;;;;;;6219923;23;20374;-85
2022/01/26 06:46:24;;;;;;;36.70;9.93;;;-1.00;99.90;;;;;;6186703;23;20395;-84
2022/01/26 06:51:33;;;;;;;24.40;8.60;;;-1.20;99.90;;;;;;6219948;23;20015;-85
2022/01/26 06:53:59;;;;;;;25.23;9.00;;;-1.20;99.90;;;;;;6218991;23;20343;-85
2022/01/26 06:56:24;;;;;;;22.57;8.67;;;-1.10;99.90;;;;;;6218698;23;20332;-84
2022/01/26 06:58:50;;;;;;;26.23;8.07;;;-1.10;99.90;;;;;;6217851;23;20000;-84
2022/01/26 07:01:16;;;;;;;23.67;7.67;;;-1.10;99.90;;;;;;6218132;23;20012;-85
2022/01/26 07:03:41;;;;;;;26.70;8.77;;;-1.10;99.90;;;;;;6217808;23;20068;-86
2022/01/26 07:06:07;;;;;;;46.80;8.93;;;-1.10;99.90;;;;;;6218592;23;20000;-86
2022/01/26 07:08:33;;;;;;;22.20;7.63;;;-1.20;99.90;;;;;;6217399;23;20092;-86
2022/01/26 07:10:59;;;;;;;32.63;8.27;;;-1.10;99.90;;;;;;6218592;23;20004;-86
2022/01/26 07:13:26;;;;;;;21.30;7.53;;;-1.10;99.90;;;;;;6219259;23;20389;-86
2022/01/26 07:21:27;;;;;;;31.87;9.10;;;-1.20;99.90;;;;;;6220054;23;20116;-86
2022/01/26 07:23:54;;;;;;;17.95;7.28;;;-1.20;99.90;;;;;;6220674;23;20043;-85
2022/01/26 07:26:20;;;;;;;24.27;8.33;;;-1.20;99.90;;;;;;6220739;23;20015;-85
2022/01/26 07:28:46;;;;;;;23.27;7.83;;;-1.20;99.90;;;;;;6219725;23;20004;-85
2022/01/26 07:31:12;;;;;;;20.13;7.80;;;-1.20;99.90;;;;;;6219226;23;20372;-86
2022/01/26 07:33:38;;;;;;;21.10;8.37;;;-1.10;99.90;;;;;;6220457;23;20339;-85
2022/01/26 07:36:05;;;;;;;24.50;7.03;;;-1.10;99.90;;;;;;6216463;23;19997;-85
2022/01/26 07:38:31;;;;;;;21.77;7.93;;;-1.00;99.90;;;;;;6223624;23;20008;-85
2022/01/26 07:40:57;;;;;;;24.67;8.90;;;-1.00;99.90;;;;;;6223531;23;20020;-86
2022/01/26 07:43:24;;;;;;;24.63;7.60;;;-0.90;99.90;;;;;;6221823;23;20012;-86
2022/01/26 07:45:52;;;;;;;23.10;8.03;;;-0.90;99.90;;;;;;6218241;23;20008;-86
2022/01/26 07:48:19;;;;;;;23.40;7.90;;;-0.90;99.90;;;;;;6215622;23;20431;-85
2022/01/26 07:50:45;;;;;;;25.03;7.53;;;-0.90;99.90;;;;;;6218391;23;20009;-86
2022/01/26 07:53:15;;;;;;;31.63;7.80;;;-0.90;99.90;;;;;;6218964;23;20078;-85
2022/01/26 07:55:41;;;;;;;22.07;7.90;;;-0.90;99.90;;;;;;6216163;23;20312;-88
2022/01/26 07:58:12;;;;;;;21.97;7.97;;;-0.90;99.90;;;;;;6210179;23;20005;-88
2022/01/26 08:00:38;;;;;;;20.13;7.27;;;-0.90;99.90;;;;;;6211285;23;20009;-88
2022/01/26 08:03:06;;;;;;;30.67;7.57;;;-1.00;99.90;;;;;;6213342;23;20458;-88
2022/01/26 08:05:32;;;;;;;22.00;8.00;;;-1.00;99.90;;;;;;6213894;23;20058;-88
2022/01/26 08:07:58;;;;;;;16.30;6.53;;;-1.10;99.90;;;;;;6213790;23;20040;-88
2022/01/26 08:10:23;;;;;;;25.30;7.53;;;-1.10;99.90;;;;;;6213341;23;20036;-88
2022/01/26 08:12:50;;;;;;;23.43;8.50;;;-1.10;99.90;;;;;;6213040;23;20000;-88
2022/01/26 08:15:16;;;;;;;22.83;7.93;;;-1.00;99.90;;;;;;6214493;23;19997;-88
2022/01/26 08:17:42;;;;;;;20.57;7.03;;;-1.00;99.90;;;;;;6213403;23;20008;-89
2022/01/26 08:20:10;;;;;;;20.80;7.57;;;-1.00;99.90;;;;;;6207841;23;20012;-87
2022/01/26 08:22:36;;;;;;;25.70;8.00;;;-0.90;99.90;;;;;;6213454;23;20011;-89
2022/01/26 08:25:02;;;;;;;28.20;8.47;;;-0.90;99.90;;;;;;6213058;23;20015;-89
2022/01/26 08:27:38;;;;;;;27.77;8.07;;;-0.90;99.90;;;;;;6214962;23;20004;-88
2022/01/26 08:30:09;;;;;;;29.37;8.97;;;-1.00;99.90;;;;;;6227689;23;20004;-88
2022/01/26 08:32:35;;;;;;;28.77;8.50;;;-1.00;99.90;;;;;;6203953;23;19997;-89
2022/01/26 08:35:01;;;;;;;23.37;8.93;;;-1.00;99.90;;;;;;6215259;23;20604;-89
2022/01/26 08:37:27;;;;;;;24.30;8.43;;;-0.90;99.90;;;;;;6211196;23;20001;-89
2022/01/26 08:39:52;;;;;;;23.73;7.83;;;-0.80;99.90;;;;;;6215255;23;20012;-88
2022/01/26 08:42:18;;;;;;;26.47;9.00;;;-0.70;99.90;;;;;;6214126;23;20047;-88
2022/01/26 08:44:43;;;;;;;24.73;8.23;;;-0.60;99.90;;;;;;6213228;23;20029;-88
2022/01/26 08:47:09;;;;;;;21.70;8.13;;;-0.60;99.90;;;;;;6213080;23;20019;-88
2022/01/26 08:49:35;;;;;;;29.53;8.53;;;-0.70;99.90;;;;;;6212825;23;20431;-88
2022/01/26 08:52:00;;;;;;;25.43;8.90;;;-0.70;99.90;;;;;;6214654;23;20320;-88
2022/01/26 08:54:26;;;;;;;28.07;8.77;;;-0.90;99.90;;;;;;6212770;23;20005;-88
2022/01/26 08:56:54;;;;;;;19.87;7.87;;;-0.90;99.90;;;;;;6214378;23;20423;-88
2022/01/26 08:59:21;;;;;;;21.10;8.90;;;-0.90;99.90;;;;;;6213943;23;20000;-88
2022/01/26 09:01:47;;;;;;;32.33;9.40;;;-1.00;99.90;;;;;;6214580;23;20008;-88
2022/01/26 09:04:14;;;;;;;26.43;9.57;;;-0.90;99.90;;;;;;6214396;23;20426;-88
2022/01/26 09:06:50;;;;;;;29.03;8.63;;;-1.00;99.90;;;;;;6212669;23;20320;-88
2022/01/26 09:09:19;;;;;;;23.87;9.00;;;-0.90;99.90;;;;;;6214192;23;20004;-88
2022/01/26 09:11:46;;;;;;;25.00;10.00;;;-0.90;99.90;;;;;;6214043;23;20035;-88
2022/01/26 09:14:17;;;;;;;24.27;8.63;;;-0.90;99.90;;;;;;6214779;23;20001;-88
2022/01/26 09:16:43;;;;;;;27.87;9.10;;;-0.90;99.90;;;;;;6214123;23;19992;-88
2022/01/26 09:19:27;;;;;;;30.20;9.03;;;-0.80;99.90;;;;;;6214172;23;20028;-88
2022/01/26 09:21:55;;;;;;;24.00;8.40;;;-0.80;99.90;;;;;;6214598;23;20000;-88
2022/01/26 09:24:21;;;;;;;24.37;8.60;;;-0.80;99.90;;;;;;6214787;23;20009;-88
2022/01/26 09:26:46;;;;;;;25.77;8.73;;;-0.70;99.90;;;;;;6213497;23;20054;-88
2022/01/26 09:29:12;;;;;;;26.37;9.20;;;-0.70;99.90;;;;;;6212221;23;20408;-87
2022/01/26 09:31:38;;;;;;;29.70;9.53;;;-0.60;99.90;;;;;;6212663;23;20088;-87
2022/01/26 09:34:03;;;;;;;28.27;9.40;;;-0.60;99.90;;;;;;6213572;23;20006;-87
2022/01/26 09:36:30;;;;;;;24.53;7.80;;;-0.60;99.90;;;;;;6188391;23;20051;-88
2022/01/26 09:38:56;;;;;;;19.87;8.43;;;-0.50;99.90;;;;;;6210020;23;20007;-87
2022/01/26 09:41:23;;;;;;;26.83;9.20;;;-0.50;99.90;;;;;;6214720;23;20028;-88
2022/01/26 09:43:49;;;;;;;25.33;7.73;;;-0.40;99.90;;;;;;6212468;23;20001;-88
2022/01/26 09:46:14;;;;;;;28.43;9.00;;;-0.40;99.90;;;;;;6212737;23;20036;-88
2022/01/26 09:48:42;;;;;;;34.37;8.37;;;-0.40;99.90;;;;;;6213670;23;20012;-88
2022/01/26 09:51:12;;;;;;;22.63;7.80;;;-0.50;99.90;;;;;;6212652;23;20032;-88
2022/01/26 09:53:40;;;;;;;28.73;7.50;;;-0.50;99.90;;;;;;6213057;23;20058;-88
2022/01/26 09:56:06;;;;;;;43.57;10.43;;;-0.50;99.90;;;;;;6214151;23;20000;-87
2022/01/26 09:58:32;;;;;;;32.07;8.17;;;-0.40;99.90;;;;;;6214410;23;20005;-88
2022/01/26 10:01:00;;;;;;;27.97;8.47;;;-0.40;99.90;;;;;;6212675;23;20005;-88
2022/01/26 10:03:34;;;;;;;23.90;7.77;;;-0.50;99.90;;;;;;6213621;23;20005;-87
2022/01/26 10:06:01;;;;;;;25.77;8.23;;;-0.50;99.90;;;;;;6214366;23;20024;-88
2022/01/26 10:19:04;;;;;;;29.00;9.13;;;-0.70;99.90;;;;;;6215526;23;20012;-88
2022/01/26 10:21:30;;;;;;;30.97;10.60;;;-0.60;99.90;;;;;;6215988;23;20443;-87
2022/01/26 10:24:07;;;;;;;29.77;9.00;;;-0.60;99.90;;;;;;6189146;23;20004;-88
2022/01/26 10:26:33;;;;;;;27.53;8.83;;;-0.60;99.90;;;;;;6216568;23;20000;-88
2022/01/26 10:29:03;;;;;;;31.83;10.33;;;-0.60;99.90;;;;;;6216239;23;20016;-88
2022/01/26 10:31:31;;;;;;;28.37;10.17;;;-0.50;99.90;;;;;;6216056;23;20028;-89
2022/01/26 10:33:58;;;;;;;30.80;8.93;;;-0.50;99.90;;;;;;6216356;23;20007;-88
2022/01/26 10:36:47;;;;;;;22.50;8.83;;;-0.40;99.90;;;;;;6215090;23;20028;-89
2022/01/26 10:39:22;;;;;;;37.13;9.90;;;-0.30;99.90;;;;;;6213258;23;20003;-89
2022/01/26 10:41:51;;;;;;;23.93;9.67;;;-0.40;99.90;;;;;;6216288;23;20019;-88
2022/01/26 10:44:18;;;;;;;29.10;10.40;;;-0.50;99.90;;;;;;6189451;23;20035;-88
2022/01/26 10:46:44;;;;;;;35.27;10.63;;;-0.70;99.90;;;;;;6215968;23;20078;-88
2022/01/26 10:49:19;;;;;;;30.93;10.67;;;-0.60;99.90;;;;;;6215754;23;20016;-88
2022/01/26 10:56:51;;;;;;;30.57;9.50;;;-0.50;99.90;;;;;;6216125;23;20395;-89
2022/01/26 10:59:18;;;;;;;26.57;9.27;;;-0.40;99.90;;;;;;6213739;23;20005;-88
2022/01/26 11:01:43;;;;;;;25.27;9.20;;;-0.30;99.90;;;;;;6214016;23;20470;-88
2022/01/26 11:04:10;;;;;;;24.63;8.80;;;-0.40;99.90;;;;;;6215511;23;20001;-87
2022/01/26 11:06:37;;;;;;;26.97;10.10;;;-0.30;99.90;;;;;;6216233;23;20005;-88
2022/01/26 11:09:10;;;;;;;23.63;9.03;;;-0.20;99.90;;;;;;6188839;23;20005;-88
2022/01/26 11:11:39;;;;;;;23.40;8.17;;;-0.10;99.90;;;;;;6215166;23;20389;-88
2022/01/26 11:14:22;;;;;;;27.87;9.37;;;0.00;99.90;;;;;;6215615;23;20004;-88
2022/01/26 11:16:54;;;;;;;22.63;8.47;;;0.00;99.90;;;;;;6188978;23;20005;-88
2022/01/26 11:19:21;;;;;;;16.77;5.57;;;0.00;99.90;;;;;;6213247;23;20008;-88
2022/01/26 11:21:47;;;;;;;25.30;8.47;;;0.10;99.90;;;;;;6217729;23;20000;-89
2022/01/26 11:24:23;;;;;;;19.10;6.77;;;0.10;99.90;;;;;;6216367;23;20008;-89
2022/01/26 11:27:09;;;;;;;22.07;8.10;;;0.20;99.90;;;;;;6214278;23;20013;-88
2022/01/26 11:29:38;;;;;;;25.43;8.57;;;0.20;99.90;;;;;;6187433;23;20000;-88
2022/01/26 11:32:18;;;;;;;24.00;7.47;;;0.20;99.90;;;;;;6215742;23;20012;-87
2022/01/26 11:34:43;;;;;;;25.87;7.73;;;0.30;99.90;;;;;;6190750;23;20499;-88
2022/01/26 11:37:13;;;;;;;26.47;8.00;;;0.30;99.90;;;;;;6211191;23;20012;-87
2022/01/26 11:45:04;;;;;;;28.33;7.97;;;0.20;99.90;;;;;;6216129;23;20332;-88
2022/01/26 11:45:20;;;;;;;30.67;9.27;;;0.30;99.90;;;;;;6215590;23;20050;-88
2022/01/26 11:47:59;;;;;;;24.07;9.17;;;0.30;99.90;;;;;;6215356;23;20000;-88
2022/01/26 11:50:26;;;;;;;28.37;9.03;;;0.30;99.90;;;;;;6212927;23;20036;-88
2022/01/26 11:53:08;;;;;;;30.57;9.77;;;0.30;99.90;;;;;;6215604;23;20232;-89
2022/01/26 11:55:42;;;;;;;27.85;8.27;;;0.40;99.90;;;;;;6215534;23;20592;-89
2022/01/26 11:58:31;;;;;;;23.27;8.53;;;0.40;99.90;;;;;;6215592;23;20004;-89
2022/01/26 12:01:22;;;;;;;23.90;8.50;;;0.40;99.90;;;;;;6218975;23;20447;-88
2022/01/26 12:04:05;;;;;;;22.40;8.57;;;0.40;99.90;;;;;;6214226;23;20004;-89
2022/01/26 12:06:35;;;;;;;;;;;0.40;99.90;;;;;;6215456;23;20004;-88
2022/01/26 12:09:02;;;;;;;20.10;7.47;;;0.50;99.90;;;;;;6214570;23;19946;-88
2022/01/26 12:11:29;;;;;;;28.33;9.63;;;0.50;99.90;;;;;;6212595;22;20065;-87
2022/01/26 12:13:59;;;;;;;29.73;9.57;;;0.40;99.90;;;;;;6227810;23;20765;-89
2022/01/26 12:16:42;;;;;;;30.80;9.80;;;0.50;99.90;;;;;;6253214;23;20395;-88
2022/01/26 12:38:59;;;;;;;33.07;9.73;;;0.60;99.90;;;;;;6162765;23;20460;-88
2022/01/26 12:41:36;;;;;;;31.23;8.47;;;0.60;99.90;;;;;;6224403;23;20019;-89
2022/01/26 12:44:13;;;;;;;33.80;9.17;;;0.50;99.90;;;;;;6258157;23;20064;-89
2022/01/26 12:46:40;;;;;;;46.47;9.53;;;0.50;99.90;;;;;;6230230;23;20020;-88
2022/01/26 12:49:20;;;;;;;30.33;9.23;;;0.50;99.90;;;;;;6257027;23;20008;-90
2022/01/26 12:51:54;;;;;;;26.60;8.80;;;0.40;99.90;;;;;;6232350;23;20008;-88
2022/01/26 12:54:24;;;;;;;34.83;8.63;;;0.40;99.90;;;;;;6233576;23;20015;-89
2022/01/26 12:56:50;;;;;;;19.60;7.20;;;0.40;99.90;;;;;;6232660;23;20007;-89
2022/01/26 12:59:20;;;;;;;31.87;8.27;;;0.40;99.90;;;;;;6233289;23;20012;-89
2022/01/26 13:01:47;;;;;;;29.13;8.83;;;0.30;99.90;;;;;;6233625;23;20008;-89
2022/01/26 13:04:16;;;;;;;29.17;8.27;;;0.40;99.90;;;;;;6260731;23;20004;-89
2022/01/26 13:06:49;;;;;;;30.40;8.30;;;0.30;99.90;;;;;;6260388;23;20004;-89
2022/01/26 13:09:27;;;;;;;21.00;7.40;;;0.20;99.90;;;;;;6259942;23;20064;-89
2022/01/26 13:12:02;;;;;;;27.20;8.93;;;0.30;99.90;;;;;;6232813;23;20012;-88
2022/01/26 13:14:46;;;;;;;30.50;9.00;;;0.30;99.90;;;;;;6229016;23;20385;-89
2022/01/26 13:17:37;;;;;;;27.57;8.47;;;0.30;99.90;;;;;;6260466;23;20052;-89
2022/01/26 13:26:03;;;;;;;30.37;8.40;;;0.30;99.90;;;;;;6269344;23;20012;-88
2022/01/26 13:28:55;;;;;;;28.07;7.87;;;0.30;99.90;;;;;;6260100;23;20011;-88
2022/01/26 13:39:53;;;;;;;22.30;7.90;;;0.30;99.90;;;;;;6207423;23;20046;-89
2022/01/26 13:53:20;;;;;;;23.03;7.90;;;0.30;99.90;;;;;;6254006;22;20034;-89
2022/01/26 14:01:03;;;;;;;25.63;8.03;;;0.10;99.90;;;;;;6255514;23;20019;-89
2022/01/26 14:03:31;;;;;;;21.03;7.93;;;0.20;99.90;;;;;;6228134;23;20010;-90
2022/01/26 14:05:57;;;;;;;23.13;7.53;;;0.20;99.90;;;;;;6227176;23;20011;-89
2022/01/26 14:08:23;;;;;;;23.00;7.83;;;0.20;99.90;;;;;;6226235;23;20008;-89
2022/01/26 14:10:49;;;;;;;22.93;8.23;;;0.20;99.90;;;;;;6225715;23;20001;-89
2022/01/26 14:13:27;;;;;;;25.33;8.67;;;0.20;99.90;;;;;;6223931;23;20046;-88
2022/01/26 14:15:56;;;;;;;24.47;7.47;;;0.30;99.90;;;;;;6251991;23;20446;-90
2022/01/26 14:20:55;;;;;;;23.93;7.83;;;0.30;99.90;;;;;;6250650;23;20091;-89
2022/01/26 14:23:56;;;;;;;32.07;8.53;;;0.40;99.90;;;;;;6224755;23;20007;-88
2022/01/26 14:26:30;;;;;;;23.80;7.63;;;0.30;99.90;;;;;;6223791;23;20003;-90
2022/01/26 14:29:00;;;;;;;24.33;7.47;;;0.20;99.90;;;;;;6224328;23;20078;-89
2022/01/26 14:31:54;;;;;;;20.63;7.20;;;0.30;99.90;;;;;;6223598;23;20012;-89
2022/01/26 14:51:38;;;;;;;18.70;5.57;;;-0.20;99.90;;;;;;6250521;22;20015;-89
2022/01/26 14:54:19;;;;;;;14.47;6.17;;;-0.10;99.90;;;;;;6248434;23;20053;-89
2022/01/26 15:41:44;;;;;;;22.77;7.17;;;-0.50;99.90;;;;;;6206473;23;20012;-88
2022/01/26 15:44:42;;;;;;;18.03;5.87;;;-0.50;99.90;;;;;;6229252;23;20088;-88
2022/01/26 15:50:10;;;;;;;23.53;6.83;;;-0.40;99.90;;;;;;6231289;23;20636;-87
2022/01/26 15:52:50;;;;;;;18.07;5.80;;;-0.40;99.90;;;;;;6202253;23;20023;-87
2022/01/26 15:58:19;;;;;;;16.83;5.53;;;-0.30;99.90;;;;;;6230312;23;20060;-87
2022/01/26 16:18:05;;;;;;;16.33;6.27;;;-0.30;99.90;;;;;;6228362;23;20469;-88
2022/01/26 18:15:52;;;;;;;18.23;7.03;;;-0.30;99.90;;;;;;6296878;22;20049;-87
2022/01/26 18:26:51;;;;;;;21.43;7.03;;;-0.40;99.90;;;;;;6289753;22;20011;-88
2022/01/26 18:32:17;;;;;;;20.37;6.87;;;-0.40;99.90;;;;;;6290630;22;20042;-87
2022/01/26 18:46:48;;;;;;;26.07;7.17;;;-0.40;99.90;;;;;;6283197;22;20034;-85
2022/01/26 18:51:29;;;;;;;22.93;6.87;;;-0.40;99.90;;;;;;6286718;22;20042;-86
2022/01/26 18:54:07;;;;;;;19.87;7.37;;;-0.40;99.90;;;;;;6255622;22;20000;-85
2022/01/26 18:56:52;;;;;;;24.47;7.23;;;-0.40;99.90;;;;;;6283142;22;20007;-86
2022/01/26 18:59:24;;;;;;;21.57;7.30;;;-0.40;99.90;;;;;;6258539;22;20007;-86
2022/01/26 19:01:55;;;;;;;26.80;8.53;;;-0.50;99.90;;;;;;6256611;22;20004;-87
2022/01/26 19:04:29;;;;;;;23.53;7.17;;;-0.40;99.90;;;;;;6287527;22;20011;-87
2022/01/26 19:06:54;;;;;;;24.48;7.85;;;-0.30;99.90;;;;;;6243734;22;20075;-88
2022/01/26 19:09:47;;;;;;;29.00;8.07;;;-0.40;99.90;;;;;;6222850;23;20008;-92
2022/01/26 19:12:16;;;;;;;24.23;6.88;;;-0.40;99.90;;;;;;6250116;23;20000;-90
2022/01/26 19:14:53;;;;;;;24.93;7.40;;;-0.40;99.90;;;;;;6224206;22;20064;-90
2022/01/26 19:21:11;;;;;;;28.20;9.73;;;-0.30;99.90;;;;;;6249392;23;20010;-91
2022/01/26 19:42:58;;;;;;;21.13;7.37;;;-0.50;99.90;;;;;;6247469;23;20039;-88